sensor_id;sensor_type;location;lat;lon;timestamp;P1;durP1;ratioP1;P2;durP2;ratioP2
5704;SDS011;2877;48.238;11.160;2022-10-16T00:00:15;1.50;;;1.40;;
5704;SDS011;2877;48.238;11.160;2022-10-16T00:02:41;2.27;;;1.90;;
5704;SDS011;2877;48.238;11.160;2022-10-16T00:05:06;2.90;;;1.40;;
5704;SDS011;2877;48.238;11.160;2022-10-16T00:07:32;3.47;;;1.73;;
5704;SDS011;2877;48.238;11.160;2022-10-16T00:09:57;1.57;;;1.47;;
5704;SDS011;2877;48.238;11.160;2022-10-16T00:12:23;3.33;;;1.73;;
5704;SDS011;2877;48.238;11.160;2022-10-16T00:14:49;1.50;;;1.40;;
5704;SDS011;2877;48.238;11.160;2022-10-16T00:17:14;1.93;;;1.80;;
5704;SDS011;2877;48.238;11.160;2022-10-16T00:19:40;2.90;;;1.83;;
5704;SDS011;2877;48.238;11.160;2022-10-16T00:22:05;2.07;;;1.70;;
5704;SDS011;2877;48.238;11.160;2022-10-16T00:24:31;3.27;;;1.47;;
5704;SDS011;2877;48.238;11.160;2022-10-16T00:26:56;1.77;;;1.50;;
5704;SDS011;2877;48.238;11.160;2022-10-16T00:29:22;2.47;;;1.70;;
5704;SDS011;2877;48.238;11.160;2022-10-16T00:31:48;1.50;;;1.40;;
5704;SDS011;2877;48.238;11.160;2022-10-16T00:34:13;1.70;;;1.60;;
5704;SDS011;2877;48.238;11.160;2022-10-16T00:36:39;2.80;;;1.60;;
5704;SDS011;2877;48.238;11.160;2022-10-16T00:39:04;1.60;;;1.50;;
5704;SDS011;2877;48.238;11.160;2022-10-16T00:41:30;1.47;;;1.43;;
5704;SDS011;2877;48.238;11.160;2022-10-16T00:44:00;1.57;;;1.47;;
5704;SDS011;2877;48.238;11.160;2022-10-16T00:46:31;2.07;;;1.33;;
5704;SDS011;2877;48.238;11.160;2022-10-16T00:49:04;7.60;;;1.90;;
5704;SDS011;2877;48.238;11.160;2022-10-16T00:51:45;2.77;;;1.43;;
5704;SDS011;2877;48.238;11.160;2022-10-16T00:54:23;3.60;;;1.50;;
5704;SDS011;2877;48.238;11.160;2022-10-16T00:56:54;1.53;;;1.43;;
5704;SDS011;2877;48.238;11.160;2022-10-16T00:59:32;3.87;;;1.50;;
5704;SDS011;2877;48.238;11.160;2022-10-16T01:02:00;3.00;;;1.67;;
5704;SDS011;2877;48.238;11.160;2022-10-16T01:04:27;2.00;;;1.10;;
5704;SDS011;2877;48.238;11.160;2022-10-16T01:09:34;1.50;;;1.40;;
5704;SDS011;2877;48.238;11.160;2022-10-16T01:17:12;1.40;;;1.30;;
5704;SDS011;2877;48.238;11.160;2022-10-16T01:20:03;1.30;;;1.20;;
5704;SDS011;2877;48.238;11.160;2022-10-16T01:25:30;4.83;;;1.60;;
5704;SDS011;2877;48.238;11.160;2022-10-16T01:27:56;1.30;;;1.20;;
5704;SDS011;2877;48.238;11.160;2022-10-16T01:30:26;1.47;;;1.40;;
5704;SDS011;2877;48.238;11.160;2022-10-16T01:32:57;1.37;;;1.37;;
5704;SDS011;2877;48.238;11.160;2022-10-16T01:35:32;2.33;;;1.50;;
5704;SDS011;2877;48.238;11.160;2022-10-16T01:40:58;1.47;;;1.37;;
5704;SDS011;2877;48.238;11.160;2022-10-16T01:43:38;1.63;;;1.50;;
5704;SDS011;2877;48.238;11.160;2022-10-16T01:46:08;2.30;;;1.27;;
5704;SDS011;2877;48.238;11.160;2022-10-16T01:48:38;4.30;;;1.40;;
5704;SDS011;2877;48.238;11.160;2022-10-16T01:51:06;2.20;;;1.60;;
5704;SDS011;2877;48.238;11.160;2022-10-16T01:53:36;3.47;;;1.40;;
5704;SDS011;2877;48.238;11.160;2022-10-16T01:56:03;1.10;;;1.10;;
5704;SDS011;2877;48.238;11.160;2022-10-16T01:58:33;1.97;;;1.37;;
5704;SDS011;2877;48.238;11.160;2022-10-16T02:01:03;1.43;;;1.30;;
5704;SDS011;2877;48.238;11.160;2022-10-16T02:03:32;3.43;;;1.57;;
5704;SDS011;2877;48.238;11.160;2022-10-16T02:06:01;5.90;;;1.50;;
5704;SDS011;2877;48.238;11.160;2022-10-16T02:08:27;1.37;;;1.30;;
5704;SDS011;2877;48.238;11.160;2022-10-16T02:10:57;1.77;;;1.40;;
5704;SDS011;2877;48.238;11.160;2022-10-16T02:13:33;1.43;;;1.40;;
5704;SDS011;2877;48.238;11.160;2022-10-16T02:16:12;2.60;;;1.23;;
5704;SDS011;2877;48.238;11.160;2022-10-16T02:18:39;2.63;;;1.37;;
5704;SDS011;2877;48.238;11.160;2022-10-16T02:22:06;1.50;;;1.40;;
5704;SDS011;2877;48.238;11.160;2022-10-16T02:24:12;2.60;;;1.20;;
5704;SDS011;2877;48.238;11.160;2022-10-16T02:27:01;1.77;;;1.67;;
5704;SDS011;2877;48.238;11.160;2022-10-16T02:29:47;4.10;;;1.37;;
5704;SDS011;2877;48.238;11.160;2022-10-16T02:32:22;1.10;;;1.10;;
5704;SDS011;2877;48.238;11.160;2022-10-16T02:34:52;5.83;;;1.87;;
5704;SDS011;2877;48.238;11.160;2022-10-16T02:37:19;3.50;;;1.50;;
5704;SDS011;2877;48.238;11.160;2022-10-16T02:39:45;1.50;;;1.40;;
5704;SDS011;2877;48.238;11.160;2022-10-16T02:42:14;4.30;;;1.63;;
5704;SDS011;2877;48.238;11.160;2022-10-16T02:44:40;2.33;;;1.30;;
5704;SDS011;2877;48.238;11.160;2022-10-16T02:47:05;4.10;;;1.30;;
5704;SDS011;2877;48.238;11.160;2022-10-16T02:49:31;1.57;;;1.47;;
5704;SDS011;2877;48.238;11.160;2022-10-16T02:51:57;1.53;;;1.43;;
5704;SDS011;2877;48.238;11.160;2022-10-16T02:54:22;1.70;;;1.40;;
5704;SDS011;2877;48.238;11.160;2022-10-16T02:56:48;3.43;;;1.63;;
5704;SDS011;2877;48.238;11.160;2022-10-16T02:59:14;1.50;;;1.27;;
5704;SDS011;2877;48.238;11.160;2022-10-16T03:01:40;2.10;;;1.60;;
5704;SDS011;2877;48.238;11.160;2022-10-16T03:04:05;2.40;;;1.47;;
5704;SDS011;2877;48.238;11.160;2022-10-16T03:06:31;2.90;;;1.50;;
5704;SDS011;2877;48.238;11.160;2022-10-16T03:08:56;2.50;;;1.50;;
5704;SDS011;2877;48.238;11.160;2022-10-16T03:11:22;2.90;;;1.60;;
5704;SDS011;2877;48.238;11.160;2022-10-16T03:13:47;2.60;;;1.57;;
5704;SDS011;2877;48.238;11.160;2022-10-16T03:16:13;1.60;;;1.50;;
5704;SDS011;2877;48.238;11.160;2022-10-16T03:18:38;1.50;;;1.40;;
5704;SDS011;2877;48.238;11.160;2022-10-16T03:21:04;1.50;;;1.40;;
5704;SDS011;2877;48.238;11.160;2022-10-16T03:23:30;4.10;;;1.67;;
5704;SDS011;2877;48.238;11.160;2022-10-16T03:25:55;1.67;;;1.53;;
5704;SDS011;2877;48.238;11.160;2022-10-16T03:28:21;1.50;;;1.40;;
5704;SDS011;2877;48.238;11.160;2022-10-16T03:30:46;1.60;;;1.50;;
5704;SDS011;2877;48.238;11.160;2022-10-16T03:33:12;1.43;;;1.43;;
5704;SDS011;2877;48.238;11.160;2022-10-16T03:35:37;4.30;;;3.73;;
5704;SDS011;2877;48.238;11.160;2022-10-16T03:38:03;7.07;;;2.60;;
5704;SDS011;2877;48.238;11.160;2022-10-16T03:40:29;1.47;;;1.43;;
5704;SDS011;2877;48.238;11.160;2022-10-16T03:42:56;5.20;;;1.77;;
5704;SDS011;2877;48.238;11.160;2022-10-16T03:45:22;1.50;;;1.40;;
5704;SDS011;2877;48.238;11.160;2022-10-16T03:47:48;1.50;;;1.40;;
5704;SDS011;2877;48.238;11.160;2022-10-16T03:50:14;1.70;;;1.60;;
5704;SDS011;2877;48.238;11.160;2022-10-16T03:52:39;2.03;;;1.57;;
5704;SDS011;2877;48.238;11.160;2022-10-16T03:55:05;1.80;;;1.70;;
5704;SDS011;2877;48.238;11.160;2022-10-16T03:57:31;4.93;;;1.77;;
5704;SDS011;2877;48.238;11.160;2022-10-16T03:59:57;1.83;;;1.73;;
5704;SDS011;2877;48.238;11.160;2022-10-16T04:02:22;3.50;;;1.90;;
5704;SDS011;2877;48.238;11.160;2022-10-16T04:04:48;3.43;;;1.83;;
5704;SDS011;2877;48.238;11.160;2022-10-16T04:07:14;2.73;;;1.50;;
5704;SDS011;2877;48.238;11.160;2022-10-16T04:09:40;1.93;;;1.70;;
5704;SDS011;2877;48.238;11.160;2022-10-16T04:12:05;3.30;;;2.00;;
5704;SDS011;2877;48.238;11.160;2022-10-16T04:14:31;3.27;;;2.13;;
5704;SDS011;2877;48.238;11.160;2022-10-16T04:16:56;2.33;;;2.13;;
5704;SDS011;2877;48.238;11.160;2022-10-16T04:19:22;2.27;;;2.07;;
5704;SDS011;2877;48.238;11.160;2022-10-16T04:21:47;4.07;;;1.60;;
5704;SDS011;2877;48.238;11.160;2022-10-16T04:24:13;2.60;;;1.80;;
5704;SDS011;2877;48.238;11.160;2022-10-16T04:26:39;7.00;;;1.97;;
5704;SDS011;2877;48.238;11.160;2022-10-16T04:29:04;1.60;;;1.50;;
5704;SDS011;2877;48.238;11.160;2022-10-16T04:31:31;1.50;;;1.40;;
5704;SDS011;2877;48.238;11.160;2022-10-16T04:33:56;5.03;;;1.60;;
5704;SDS011;2877;48.238;11.160;2022-10-16T04:36:22;4.60;;;1.57;;
5704;SDS011;2877;48.238;11.160;2022-10-16T04:38:47;3.00;;;1.70;;
5704;SDS011;2877;48.238;11.160;2022-10-16T04:41:13;2.10;;;2.00;;
5704;SDS011;2877;48.238;11.160;2022-10-16T04:43:38;1.90;;;1.80;;
5704;SDS011;2877;48.238;11.160;2022-10-16T04:46:04;1.90;;;1.80;;
5704;SDS011;2877;48.238;11.160;2022-10-16T04:48:30;3.53;;;3.10;;
5704;SDS011;2877;48.238;11.160;2022-10-16T04:50:56;2.27;;;2.07;;
5704;SDS011;2877;48.238;11.160;2022-10-16T04:53:21;2.40;;;1.90;;
5704;SDS011;2877;48.238;11.160;2022-10-16T04:55:47;2.77;;;2.30;;
5704;SDS011;2877;48.238;11.160;2022-10-16T04:58:13;2.07;;;1.97;;
5704;SDS011;2877;48.238;11.160;2022-10-16T05:00:38;3.03;;;1.80;;
5704;SDS011;2877;48.238;11.160;2022-10-16T05:03:04;2.17;;;1.93;;
5704;SDS011;2877;48.238;11.160;2022-10-16T05:05:33;1.60;;;1.50;;
5704;SDS011;2877;48.238;11.160;2022-10-16T05:07:58;4.23;;;1.77;;
5704;SDS011;2877;48.238;11.160;2022-10-16T05:10:24;1.93;;;1.83;;
5704;SDS011;2877;48.238;11.160;2022-10-16T05:12:49;1.70;;;1.60;;
5704;SDS011;2877;48.238;11.160;2022-10-16T05:15:16;1.63;;;1.53;;
5704;SDS011;2877;48.238;11.160;2022-10-16T05:17:42;4.07;;;2.10;;
5704;SDS011;2877;48.238;11.160;2022-10-16T05:20:08;2.17;;;1.97;;
5704;SDS011;2877;48.238;11.160;2022-10-16T05:22:33;2.07;;;1.83;;
5704;SDS011;2877;48.238;11.160;2022-10-16T05:24:59;2.20;;;2.00;;
5704;SDS011;2877;48.238;11.160;2022-10-16T05:27:24;2.00;;;1.90;;
5704;SDS011;2877;48.238;11.160;2022-10-16T05:29:50;1.83;;;1.73;;
5704;SDS011;2877;48.238;11.160;2022-10-16T05:32:16;3.80;;;1.83;;
5704;SDS011;2877;48.238;11.160;2022-10-16T05:34:42;2.00;;;1.90;;
5704;SDS011;2877;48.238;11.160;2022-10-16T05:37:08;2.03;;;1.93;;
5704;SDS011;2877;48.238;11.160;2022-10-16T05:39:34;2.27;;;2.07;;
5704;SDS011;2877;48.238;11.160;2022-10-16T05:42:01;1.63;;;1.53;;
5704;SDS011;2877;48.238;11.160;2022-10-16T05:44:27;2.30;;;1.83;;
5704;SDS011;2877;48.238;11.160;2022-10-16T05:46:52;3.20;;;1.83;;
5704;SDS011;2877;48.238;11.160;2022-10-16T05:49:18;3.50;;;2.00;;
5704;SDS011;2877;48.238;11.160;2022-10-16T05:51:44;1.90;;;1.80;;
5704;SDS011;2877;48.238;11.160;2022-10-16T05:54:09;3.50;;;2.40;;
5704;SDS011;2877;48.238;11.160;2022-10-16T05:56:35;2.70;;;2.23;;
5704;SDS011;2877;48.238;11.160;2022-10-16T05:59:00;4.30;;;1.90;;
5704;SDS011;2877;48.238;11.160;2022-10-16T06:01:27;2.27;;;2.07;;
5704;SDS011;2877;48.238;11.160;2022-10-16T06:03:53;2.00;;;1.90;;
5704;SDS011;2877;48.238;11.160;2022-10-16T06:06:19;2.10;;;2.00;;
5704;SDS011;2877;48.238;11.160;2022-10-16T06:08:46;6.73;;;2.10;;
5704;SDS011;2877;48.238;11.160;2022-10-16T06:11:14;2.30;;;2.03;;
5704;SDS011;2877;48.238;11.160;2022-10-16T06:13:41;2.00;;;1.90;;
5704;SDS011;2877;48.238;11.160;2022-10-16T06:16:07;4.00;;;2.60;;
5704;SDS011;2877;48.238;11.160;2022-10-16T06:18:34;2.43;;;2.23;;
5704;SDS011;2877;48.238;11.160;2022-10-16T06:21:06;2.07;;;1.87;;
5704;SDS011;2877;48.238;11.160;2022-10-16T06:23:32;1.97;;;1.70;;
5704;SDS011;2877;48.238;11.160;2022-10-16T06:26:05;2.37;;;2.20;;
5704;SDS011;2877;48.238;11.160;2022-10-16T06:28:35;3.80;;;2.13;;
5704;SDS011;2877;48.238;11.160;2022-10-16T06:31:02;2.53;;;1.77;;
5704;SDS011;2877;48.238;11.160;2022-10-16T06:33:29;3.53;;;1.93;;
5704;SDS011;2877;48.238;11.160;2022-10-16T06:35:59;2.17;;;2.03;;
5704;SDS011;2877;48.238;11.160;2022-10-16T06:38:29;3.33;;;2.03;;
5704;SDS011;2877;48.238;11.160;2022-10-16T06:40:56;2.43;;;1.90;;
5704;SDS011;2877;48.238;11.160;2022-10-16T06:43:22;11.77;;;2.40;;
5704;SDS011;2877;48.238;11.160;2022-10-16T06:45:54;2.60;;;2.40;;
5704;SDS011;2877;48.238;11.160;2022-10-16T06:48:20;2.20;;;1.70;;
5704;SDS011;2877;48.238;11.160;2022-10-16T06:50:59;2.40;;;2.20;;
5704;SDS011;2877;48.238;11.160;2022-10-16T06:53:27;3.63;;;3.33;;
5704;SDS011;2877;48.238;11.160;2022-10-16T06:55:54;3.17;;;2.87;;
5704;SDS011;2877;48.238;11.160;2022-10-16T06:58:20;3.50;;;3.20;;
5704;SDS011;2877;48.238;11.160;2022-10-16T07:00:46;2.80;;;2.60;;
5704;SDS011;2877;48.238;11.160;2022-10-16T07:03:12;2.50;;;2.30;;
5704;SDS011;2877;48.238;11.160;2022-10-16T07:05:40;2.40;;;2.27;;
5704;SDS011;2877;48.238;11.160;2022-10-16T07:08:07;3.20;;;2.47;;
5704;SDS011;2877;48.238;11.160;2022-10-16T07:10:33;2.63;;;2.43;;
5704;SDS011;2877;48.238;11.160;2022-10-16T07:12:59;2.67;;;2.47;;
5704;SDS011;2877;48.238;11.160;2022-10-16T07:15:25;3.13;;;2.20;;
5704;SDS011;2877;48.238;11.160;2022-10-16T07:17:51;5.00;;;2.57;;
5704;SDS011;2877;48.238;11.160;2022-10-16T07:20:17;2.50;;;2.33;;
5704;SDS011;2877;48.238;11.160;2022-10-16T07:22:43;3.20;;;3.00;;
5704;SDS011;2877;48.238;11.160;2022-10-16T07:25:08;5.47;;;3.50;;
5704;SDS011;2877;48.238;11.160;2022-10-16T07:27:34;3.40;;;3.07;;
5704;SDS011;2877;48.238;11.160;2022-10-16T07:30:00;3.23;;;2.07;;
5704;SDS011;2877;48.238;11.160;2022-10-16T07:32:25;2.40;;;1.90;;
5704;SDS011;2877;48.238;11.160;2022-10-16T07:34:52;2.30;;;1.90;;
5704;SDS011;2877;48.238;11.160;2022-10-16T07:37:18;3.43;;;2.63;;
5704;SDS011;2877;48.238;11.160;2022-10-16T07:39:43;2.27;;;2.07;;
5704;SDS011;2877;48.238;11.160;2022-10-16T07:42:09;3.93;;;1.87;;
5704;SDS011;2877;48.238;11.160;2022-10-16T07:44:34;2.23;;;2.03;;
5704;SDS011;2877;48.238;11.160;2022-10-16T07:47:00;5.53;;;2.40;;
5704;SDS011;2877;48.238;11.160;2022-10-16T07:49:26;14.50;;;2.50;;
5704;SDS011;2877;48.238;11.160;2022-10-16T07:51:51;2.97;;;2.70;;
5704;SDS011;2877;48.238;11.160;2022-10-16T07:54:17;2.80;;;1.77;;
5704;SDS011;2877;48.238;11.160;2022-10-16T07:56:42;1.90;;;1.80;;
5704;SDS011;2877;48.238;11.160;2022-10-16T07:59:08;2.17;;;2.00;;
5704;SDS011;2877;48.238;11.160;2022-10-16T08:01:33;2.70;;;2.23;;
5704;SDS011;2877;48.238;11.160;2022-10-16T08:03:59;4.00;;;1.93;;
5704;SDS011;2877;48.238;11.160;2022-10-16T08:06:25;2.30;;;1.90;;
5704;SDS011;2877;48.238;11.160;2022-10-16T08:08:50;3.13;;;2.07;;
5704;SDS011;2877;48.238;11.160;2022-10-16T08:11:16;1.70;;;1.60;;
5704;SDS011;2877;48.238;11.160;2022-10-16T08:13:42;5.10;;;1.97;;
5704;SDS011;2877;48.238;11.160;2022-10-16T08:16:07;2.87;;;2.07;;
5704;SDS011;2877;48.238;11.160;2022-10-16T08:18:35;2.20;;;2.10;;
5704;SDS011;2877;48.238;11.160;2022-10-16T08:21:01;1.87;;;1.60;;
5704;SDS011;2877;48.238;11.160;2022-10-16T08:23:27;1.60;;;1.50;;
5704;SDS011;2877;48.238;11.160;2022-10-16T08:25:53;1.73;;;1.60;;
5704;SDS011;2877;48.238;11.160;2022-10-16T08:28:20;3.40;;;2.20;;
5704;SDS011;2877;48.238;11.160;2022-10-16T08:30:46;2.10;;;1.90;;
5704;SDS011;2877;48.238;11.160;2022-10-16T08:33:11;1.70;;;1.60;;
5704;SDS011;2877;48.238;11.160;2022-10-16T08:35:37;2.60;;;1.90;;
5704;SDS011;2877;48.238;11.160;2022-10-16T08:38:03;1.63;;;1.53;;
5704;SDS011;2877;48.238;11.160;2022-10-16T08:40:30;2.80;;;1.67;;
5704;SDS011;2877;48.238;11.160;2022-10-16T08:51:18;1.60;;;1.50;;
5704;SDS011;2877;48.238;11.160;2022-10-16T08:53:53;4.20;;;1.33;;
5704;SDS011;2877;48.238;11.160;2022-10-16T08:56:29;3.50;;;1.67;;
5704;SDS011;2877;48.238;11.160;2022-10-16T08:58:57;1.70;;;1.60;;
5704;SDS011;2877;48.238;11.160;2022-10-16T09:01:23;6.90;;;1.90;;
5704;SDS011;2877;48.238;11.160;2022-10-16T09:06:50;1.63;;;1.53;;
5704;SDS011;2877;48.238;11.160;2022-10-16T09:12:08;1.83;;;1.73;;
5704;SDS011;2877;48.238;11.160;2022-10-16T09:23:19;1.70;;;1.60;;
5704;SDS011;2877;48.238;11.160;2022-10-16T09:25:44;1.60;;;1.40;;
5704;SDS011;2877;48.238;11.160;2022-10-16T09:28:13;1.43;;;1.33;;
5704;SDS011;2877;48.238;11.160;2022-10-16T09:30:39;2.17;;;1.30;;
5704;SDS011;2877;48.238;11.160;2022-10-16T09:33:04;1.80;;;1.70;;
5704;SDS011;2877;48.238;11.160;2022-10-16T09:35:38;1.70;;;1.60;;
5704;SDS011;2877;48.238;11.160;2022-10-16T09:38:09;2.33;;;1.60;;
5704;SDS011;2877;48.238;11.160;2022-10-16T09:40:46;1.80;;;1.70;;
5704;SDS011;2877;48.238;11.160;2022-10-16T09:45:55;1.30;;;1.20;;
5704;SDS011;2877;48.238;11.160;2022-10-16T09:48:43;1.80;;;1.70;;
5704;SDS011;2877;48.238;11.160;2022-10-16T09:51:25;1.60;;;1.50;;
5704;SDS011;2877;48.238;11.160;2022-10-16T09:59:01;1.77;;;1.40;;
5704;SDS011;2877;48.238;11.160;2022-10-16T10:01:37;4.93;;;1.30;;
5704;SDS011;2877;48.238;11.160;2022-10-16T10:04:05;1.90;;;1.70;;
5704;SDS011;2877;48.238;11.160;2022-10-16T10:06:33;1.37;;;1.33;;
5704;SDS011;2877;48.238;11.160;2022-10-16T10:11:53;4.20;;;1.60;;
5704;SDS011;2877;48.238;11.160;2022-10-16T10:17:11;7.43;;;1.03;;
5704;SDS011;2877;48.238;11.160;2022-10-16T10:19:52;3.23;;;0.90;;
5704;SDS011;2877;48.238;11.160;2022-10-16T10:25:07;1.00;;;1.00;;
5704;SDS011;2877;48.238;11.160;2022-10-16T10:27:53;2.70;;;0.93;;
5704;SDS011;2877;48.238;11.160;2022-10-16T10:30:43;1.80;;;0.90;;
5704;SDS011;2877;48.238;11.160;2022-10-16T10:36:22;0.97;;;0.87;;
5704;SDS011;2877;48.238;11.160;2022-10-16T10:41:38;1.97;;;1.50;;
5704;SDS011;2877;48.238;11.160;2022-10-16T10:44:33;1.43;;;1.30;;
5704;SDS011;2877;48.238;11.160;2022-10-16T10:47:30;1.67;;;1.30;;
5704;SDS011;2877;48.238;11.160;2022-10-16T10:58:08;0.97;;;0.87;;
5704;SDS011;2877;48.238;11.160;2022-10-16T11:01:12;1.10;;;1.00;;
5704;SDS011;2877;48.238;11.160;2022-10-16T11:03:46;3.17;;;0.93;;
5704;SDS011;2877;48.238;11.160;2022-10-16T11:07:15;1.07;;;0.80;;
5704;SDS011;2877;48.238;11.160;2022-10-16T11:09:25;1.80;;;1.00;;
5704;SDS011;2877;48.238;11.160;2022-10-16T11:12:00;1.00;;;1.00;;
5704;SDS011;2877;48.238;11.160;2022-10-16T11:14:40;6.70;;;1.20;;
5704;SDS011;2877;48.238;11.160;2022-10-16T11:17:12;2.80;;;0.83;;
5704;SDS011;2877;48.238;11.160;2022-10-16T11:19:49;0.77;;;0.77;;
5704;SDS011;2877;48.238;11.160;2022-10-16T11:22:30;0.83;;;0.83;;
5704;SDS011;2877;48.238;11.160;2022-10-16T11:25:18;0.77;;;0.77;;
5704;SDS011;2877;48.238;11.160;2022-10-16T11:36:41;2.40;;;0.90;;
5704;SDS011;2877;48.238;11.160;2022-10-16T11:39:30;0.90;;;0.90;;
5704;SDS011;2877;48.238;11.160;2022-10-16T11:42:10;0.80;;;0.80;;
5704;SDS011;2877;48.238;11.160;2022-10-16T11:55:49;1.00;;;1.00;;
5704;SDS011;2877;48.238;11.160;2022-10-16T11:58:34;4.60;;;1.30;;
5704;SDS011;2877;48.238;11.160;2022-10-16T12:03:45;1.93;;;1.83;;
5704;SDS011;2877;48.238;11.160;2022-10-16T12:09:00;0.80;;;0.80;;
5704;SDS011;2877;48.238;11.160;2022-10-16T12:16:38;0.80;;;0.80;;
5704;SDS011;2877;48.238;11.160;2022-10-16T12:19:16;0.73;;;0.73;;
5704;SDS011;2877;48.238;11.160;2022-10-16T12:21:42;0.97;;;0.87;;
5704;SDS011;2877;48.238;11.160;2022-10-16T12:27:06;1.47;;;0.77;;
5704;SDS011;2877;48.238;11.160;2022-10-16T12:30:04;0.70;;;0.70;;
5704;SDS011;2877;48.238;11.160;2022-10-16T12:32:32;1.70;;;0.60;;
5704;SDS011;2877;48.238;11.160;2022-10-16T12:35:00;0.80;;;0.80;;
5704;SDS011;2877;48.238;11.160;2022-10-16T12:37:28;0.87;;;0.70;;
5704;SDS011;2877;48.238;11.160;2022-10-16T12:39:57;0.83;;;0.80;;
5704;SDS011;2877;48.238;11.160;2022-10-16T12:44:52;0.93;;;0.80;;
5704;SDS011;2877;48.238;11.160;2022-10-16T12:49:57;1.80;;;0.70;;
5704;SDS011;2877;48.238;11.160;2022-10-16T12:52:25;1.23;;;0.70;;
5704;SDS011;2877;48.238;11.160;2022-10-16T12:54:52;1.03;;;0.70;;
5704;SDS011;2877;48.238;11.160;2022-10-16T13:00:44;3.13;;;0.77;;
5704;SDS011;2877;48.238;11.160;2022-10-16T13:11:49;1.00;;;0.70;;
5704;SDS011;2877;48.238;11.160;2022-10-16T13:14:26;1.33;;;0.90;;
5704;SDS011;2877;48.238;11.160;2022-10-16T13:22:06;0.60;;;0.60;;
5704;SDS011;2877;48.238;11.160;2022-10-16T13:24:42;1.10;;;0.70;;
5704;SDS011;2877;48.238;11.160;2022-10-16T13:27:16;0.67;;;0.60;;
5704;SDS011;2877;48.238;11.160;2022-10-16T13:30:10;0.70;;;0.70;;
5704;SDS011;2877;48.238;11.160;2022-10-16T13:32:39;0.77;;;0.77;;
5704;SDS011;2877;48.238;11.160;2022-10-16T13:35:18;0.73;;;0.73;;
5704;SDS011;2877;48.238;11.160;2022-10-16T13:37:45;0.80;;;0.60;;
5704;SDS011;2877;48.238;11.160;2022-10-16T13:40:28;0.70;;;0.70;;
5704;SDS011;2877;48.238;11.160;2022-10-16T13:42:54;0.80;;;0.80;;
5704;SDS011;2877;48.238;11.160;2022-10-16T13:45:21;1.63;;;0.90;;
5704;SDS011;2877;48.238;11.160;2022-10-16T13:47:50;2.70;;;0.70;;
5704;SDS011;2877;48.238;11.160;2022-10-16T13:50:26;0.70;;;0.70;;
5704;SDS011;2877;48.238;11.160;2022-10-16T13:52:51;0.80;;;0.67;;
5704;SDS011;2877;48.238;11.160;2022-10-16T13:55:27;3.27;;;0.80;;
5704;SDS011;2877;48.238;11.160;2022-10-16T13:57:53;0.80;;;0.80;;
5704;SDS011;2877;48.238;11.160;2022-10-16T14:00:30;0.70;;;0.60;;
5704;SDS011;2877;48.238;11.160;2022-10-16T14:03:03;0.60;;;0.60;;
5704;SDS011;2877;48.238;11.160;2022-10-16T14:05:47;0.60;;;0.60;;
5704;SDS011;2877;48.238;11.160;2022-10-16T14:08:18;0.80;;;0.70;;
5704;SDS011;2877;48.238;11.160;2022-10-16T14:10:47;0.73;;;0.63;;
5704;SDS011;2877;48.238;11.160;2022-10-16T14:13:19;0.67;;;0.67;;
5704;SDS011;2877;48.238;11.160;2022-10-16T14:15:51;0.90;;;0.60;;
5704;SDS011;2877;48.238;11.160;2022-10-16T14:18:22;2.03;;;0.77;;
5704;SDS011;2877;48.238;11.160;2022-10-16T14:20:51;0.60;;;0.60;;
5704;SDS011;2877;48.238;11.160;2022-10-16T14:23:21;0.83;;;0.60;;
5704;SDS011;2877;48.238;11.160;2022-10-16T14:25:52;0.80;;;0.77;;
5704;SDS011;2877;48.238;11.160;2022-10-16T14:28:22;3.67;;;0.70;;
5704;SDS011;2877;48.238;11.160;2022-10-16T14:30:49;0.83;;;0.80;;
5704;SDS011;2877;48.238;11.160;2022-10-16T14:33:22;0.60;;;0.60;;
5704;SDS011;2877;48.238;11.160;2022-10-16T14:38:27;1.60;;;0.70;;
5704;SDS011;2877;48.238;11.160;2022-10-16T14:40:54;0.80;;;0.77;;
5704;SDS011;2877;48.238;11.160;2022-10-16T14:43:23;1.90;;;1.00;;
5704;SDS011;2877;48.238;11.160;2022-10-16T14:46:00;1.43;;;0.90;;
5704;SDS011;2877;48.238;11.160;2022-10-16T14:48:28;1.50;;;0.70;;
5704;SDS011;2877;48.238;11.160;2022-10-16T14:50:54;0.87;;;0.67;;
5704;SDS011;2877;48.238;11.160;2022-10-16T14:53:20;0.80;;;0.80;;
5704;SDS011;2877;48.238;11.160;2022-10-16T14:55:46;1.00;;;0.70;;
5704;SDS011;2877;48.238;11.160;2022-10-16T14:58:14;10.17;;;0.80;;
5704;SDS011;2877;48.238;11.160;2022-10-16T15:00:42;0.70;;;0.70;;
5704;SDS011;2877;48.238;11.160;2022-10-16T15:03:08;0.93;;;0.63;;
5704;SDS011;2877;48.238;11.160;2022-10-16T15:05:33;0.70;;;0.70;;
5704;SDS011;2877;48.238;11.160;2022-10-16T15:07:59;0.83;;;0.80;;
5704;SDS011;2877;48.238;11.160;2022-10-16T15:10:25;0.73;;;0.70;;
5704;SDS011;2877;48.238;11.160;2022-10-16T15:12:54;2.70;;;0.70;;
5704;SDS011;2877;48.238;11.160;2022-10-16T15:17:51;1.33;;;0.70;;
5704;SDS011;2877;48.238;11.160;2022-10-16T15:20:20;2.20;;;0.83;;
5704;SDS011;2877;48.238;11.160;2022-10-16T15:22:46;2.37;;;0.70;;
5704;SDS011;2877;48.238;11.160;2022-10-16T15:25:20;3.03;;;0.60;;
5704;SDS011;2877;48.238;11.160;2022-10-16T15:27:57;0.77;;;0.77;;
5704;SDS011;2877;48.238;11.160;2022-10-16T15:30:23;4.73;;;0.70;;
5704;SDS011;2877;48.238;11.160;2022-10-16T15:32:49;1.30;;;1.00;;
5704;SDS011;2877;48.238;11.160;2022-10-16T15:35:15;1.80;;;1.03;;
5704;SDS011;2877;48.238;11.160;2022-10-16T15:37:40;0.97;;;0.87;;
5704;SDS011;2877;48.238;11.160;2022-10-16T15:40:06;0.80;;;0.80;;
5704;SDS011;2877;48.238;11.160;2022-10-16T15:42:33;4.33;;;0.80;;
5704;SDS011;2877;48.238;11.160;2022-10-16T15:44:59;1.27;;;1.07;;
5704;SDS011;2877;48.238;11.160;2022-10-16T15:47:24;1.90;;;0.90;;
5704;SDS011;2877;48.238;11.160;2022-10-16T15:49:50;1.20;;;1.10;;
5704;SDS011;2877;48.238;11.160;2022-10-16T15:52:15;0.90;;;0.90;;
5704;SDS011;2877;48.238;11.160;2022-10-16T15:54:41;3.10;;;1.20;;
5704;SDS011;2877;48.238;11.160;2022-10-16T15:57:07;2.10;;;0.90;;
5704;SDS011;2877;48.238;11.160;2022-10-16T15:59:32;2.57;;;1.07;;
5704;SDS011;2877;48.238;11.160;2022-10-16T16:01:58;5.57;;;1.00;;
5704;SDS011;2877;48.238;11.160;2022-10-16T16:04:23;2.80;;;0.90;;
5704;SDS011;2877;48.238;11.160;2022-10-16T16:06:49;2.07;;;1.00;;
5704;SDS011;2877;48.238;11.160;2022-10-16T16:09:14;6.23;;;1.70;;
5704;SDS011;2877;48.238;11.160;2022-10-16T16:11:40;1.93;;;1.47;;
5704;SDS011;2877;48.238;11.160;2022-10-16T16:14:06;3.33;;;1.50;;
5704;SDS011;2877;48.238;11.160;2022-10-16T16:16:35;4.00;;;1.13;;
5704;SDS011;2877;48.238;11.160;2022-10-16T16:19:03;2.63;;;1.00;;
5704;SDS011;2877;48.238;11.160;2022-10-16T16:21:31;3.00;;;0.90;;
5704;SDS011;2877;48.238;11.160;2022-10-16T16:23:57;6.67;;;1.27;;
5704;SDS011;2877;48.238;11.160;2022-10-16T16:26:23;7.10;;;1.80;;
5704;SDS011;2877;48.238;11.160;2022-10-16T16:28:50;8.80;;;2.97;;
5704;SDS011;2877;48.238;11.160;2022-10-16T16:31:17;12.53;;;2.67;;
5704;SDS011;2877;48.238;11.160;2022-10-16T16:33:43;8.83;;;2.40;;
5704;SDS011;2877;48.238;11.160;2022-10-16T16:36:09;3.43;;;1.50;;
5704;SDS011;2877;48.238;11.160;2022-10-16T16:38:34;3.53;;;1.60;;
5704;SDS011;2877;48.238;11.160;2022-10-16T16:41:10;6.77;;;1.30;;
5704;SDS011;2877;48.238;11.160;2022-10-16T16:43:36;1.77;;;1.10;;
5704;SDS011;2877;48.238;11.160;2022-10-16T16:46:02;3.07;;;1.07;;
5704;SDS011;2877;48.238;11.160;2022-10-16T16:48:28;2.70;;;1.20;;
5704;SDS011;2877;48.238;11.160;2022-10-16T16:50:53;3.17;;;1.60;;
5704;SDS011;2877;48.238;11.160;2022-10-16T16:53:19;1.73;;;1.30;;
5704;SDS011;2877;48.238;11.160;2022-10-16T16:55:44;1.60;;;1.10;;
5704;SDS011;2877;48.238;11.160;2022-10-16T16:58:10;4.40;;;1.27;;
5704;SDS011;2877;48.238;11.160;2022-10-16T17:00:35;2.83;;;1.10;;
5704;SDS011;2877;48.238;11.160;2022-10-16T17:03:01;1.17;;;0.90;;
5704;SDS011;2877;48.238;11.160;2022-10-16T17:05:27;1.00;;;0.90;;
5704;SDS011;2877;48.238;11.160;2022-10-16T17:07:52;5.60;;;1.23;;
5704;SDS011;2877;48.238;11.160;2022-10-16T17:10:18;1.57;;;1.10;;
5704;SDS011;2877;48.238;11.160;2022-10-16T17:12:44;4.53;;;1.10;;
5704;SDS011;2877;48.238;11.160;2022-10-16T17:15:09;2.97;;;1.20;;
5704;SDS011;2877;48.238;11.160;2022-10-16T17:17:35;1.70;;;1.10;;